Time;durP1;ratioP1;P1;durP2;ratioP2;P2;SDS_P1;SDS_P2;PMS_P1;PMS_P2;Temp;Humidity;BMP_temperature;BMP_pressure;BME280_temperature;BME280_humidity;BME280_pressure;Samples;Min_cycle;Max_cycle;Signal;HPM_P1;HPM_P2
2021/05/08 00:01:04;;;;;;;17.92;11.63;;;;;;;5.77;77.44;101761.44;5072627;28;20040;-40
2021/05/08 00:03:31;;;;;;;16.35;11.27;;;;;;;5.77;77.49;101763.34;5071899;28;20047;-41
2021/05/08 00:05:59;;;;;;;18.70;12.18;;;;;;;5.73;78.05;101763.00;5071889;28;20060;-42
2021/05/08 00:08:26;;;;;;;13.38;8.88;;;;;;;5.71;77.88;101756.84;5054416;28;20040;-42
2021/05/08 00:10:53;;;;;;;17.23;10.95;;;;;;;5.67;78.19;101746.50;5072827;28;20037;-43
2021/05/08 00:13:20;;;;;;;15.20;9.75;;;;;;;5.65;78.20;101746.75;5054078;28;20040;-41
2021/05/08 00:15:48;;;;;;;19.35;13.07;;;;;;;5.64;78.18;101749.75;5072714;28;20045;-41
2021/05/08 00:18:15;;;;;;;13.48;9.60;;;;;;;5.60;78.56;101743.03;5054377;28;20131;-42
2021/05/08 00:20:42;;;;;;;18.85;12.85;;;;;;;5.59;78.58;101736.69;5071942;28;20053;-44
2021/05/08 00:23:09;;;;;;;17.65;11.18;;;;;;;5.57;78.60;101744.38;5072368;28;20124;-40
2021/05/08 00:25:36;;;;;;;18.42;13.15;;;;;;;5.56;78.73;101745.47;5072551;28;20044;-41
2021/05/08 00:28:03;;;;;;;17.75;13.02;;;;;;;5.54;78.63;101740.16;5071443;28;20068;-41
2021/05/08 00:30:32;;;;;;;19.38;13.27;;;;;;;5.51;78.92;101740.66;5072575;28;20405;-41
2021/05/08 00:33:00;;;;;;;14.15;10.27;;;;;;;5.50;78.91;101736.19;5062797;28;20055;-41
2021/05/08 00:35:27;;;;;;;19.40;11.75;;;;;;;5.46;79.23;101739.69;5072224;28;20045;-42
2021/05/08 00:37:54;;;;;;;16.20;11.63;;;;;;;5.45;79.33;101735.25;5071784;28;20045;-41
2021/05/08 00:40:21;;;;;;;21.38;14.10;;;;;;;5.42;79.61;101736.56;5071648;28;20106;-43
2021/05/08 00:42:48;;;;;;;20.48;13.82;;;;;;;5.42;79.52;101731.03;5071791;28;20055;-40
2021/05/08 00:45:16;;;;;;;22.13;15.48;;;;;;;5.42;79.57;101730.19;5054050;28;20052;-42
2021/05/08 00:47:48;;;;;;;21.35;14.35;;;;;;;5.40;79.62;101724.06;5070839;28;20055;-41
2021/05/08 00:50:18;;;;;;;20.30;13.65;;;;;;;5.40;79.71;101718.53;5072046;28;20441;-42
2021/05/08 00:52:45;;;;;;;24.08;15.80;;;;;;;5.40;79.61;101724.91;5071877;28;20072;-43
2021/05/08 00:55:13;;;;;;;26.00;15.60;;;;;;;5.42;79.68;101724.66;5071069;28;20045;-41
2021/05/08 00:57:41;;;;;;;19.55;13.75;;;;;;;5.44;79.65;101728.03;5071667;28;20047;-43
2021/05/08 01:00:10;;;;;;;21.30;14.63;;;;;;;5.43;79.97;101729.94;5053345;28;20057;-42
2021/05/08 01:02:39;;;;;;;20.77;15.00;;;;;;;5.43;79.77;101726.34;5053338;28;20387;-42
2021/05/08 01:05:08;;;;;;;25.38;17.15;;;;;;;5.44;79.90;101725.25;5071385;28;20094;-42
2021/05/08 01:07:37;;;;;;;23.60;15.77;;;;;;;5.45;80.01;101718.63;5071553;28;20074;-42
2021/05/08 01:10:05;;;;;;;22.00;15.80;;;;;;;5.45;79.80;101718.63;5070675;28;20044;-41
2021/05/08 01:12:33;;;;;;;25.65;17.08;;;;;;;5.45;80.03;101715.88;5071335;28;20048;-42
2021/05/08 01:15:01;;;;;;;19.88;14.60;;;;;;;5.45;80.33;101710.34;5052557;28;20469;-42
2021/05/08 01:17:29;;;;;;;21.80;14.57;;;;;;;5.48;80.50;101709.84;5053633;28;20051;-41
2021/05/08 01:19:56;;;;;;;23.98;16.73;;;;;;;5.50;80.39;101704.91;5071514;28;20040;-42
2021/05/08 01:22:24;;;;;;;26.20;17.33;;;;;;;5.51;80.44;101709.38;5070834;28;20151;-42
2021/05/08 01:24:52;;;;;;;22.73;15.60;;;;;;;5.50;80.26;101707.69;5071030;28;20048;-42
2021/05/08 01:27:19;;;;;;;21.02;15.02;;;;;;;5.49;80.24;101700.47;5057608;28;20510;-41
2021/05/08 01:29:47;;;;;;;23.20;15.32;;;;;;;5.48;80.08;101698.78;5052577;28;20029;-44
2021/05/08 01:32:14;;;;;;;27.40;18.35;;;;;;;5.48;80.07;101693.25;5053517;28;20044;-42
2021/05/08 01:34:41;;;;;;;25.77;16.90;;;;;;;5.46;80.40;101689.88;5071069;28;20084;-42
2021/05/08 01:37:09;;;;;;;26.73;17.52;;;;;;;5.45;80.45;101696.50;5070400;28;20060;-43
2021/05/08 01:39:36;;;;;;;23.90;15.48;;;;;;;5.43;80.51;101690.34;5071087;28;20028;-42
2021/05/08 01:42:04;;;;;;;25.38;17.30;;;;;;;5.43;80.42;101682.91;5060312;28;20102;-42
2021/05/08 01:44:31;;;;;;;28.27;20.00;;;;;;;5.44;80.64;101687.34;5070383;28;20060;-42
2021/05/08 01:46:58;;;;;;;35.47;21.20;;;;;;;5.45;80.34;101689.03;5071153;28;20063;-41
2021/05/08 01:49:26;;;;;;;29.75;20.35;;;;;;;5.45;80.64;101686.25;5052689;28;20051;-43
2021/05/08 01:51:53;;;;;;;26.90;18.25;;;;;;;5.46;80.75;101678.81;5070515;28;20444;-44
2021/05/08 01:54:22;;;;;;;28.10;18.88;;;;;;;5.48;80.43;101679.41;5071021;28;20048;-42
2021/05/08 01:56:50;;;;;;;29.02;19.38;;;;;;;5.49;80.59;101670.00;5052877;28;20101;-43
2021/05/08 01:59:23;;;;;;;31.15;20.75;;;;;;;5.50;80.51;101680.00;5052776;28;20192;-44
2021/05/08 02:01:50;;;;;;;30.33;19.92;;;;;;;5.50;80.20;101669.78;5070597;28;20386;-43
2021/05/08 02:04:17;;;;;;;26.73;17.90;;;;;;;5.53;80.34;101668.44;5056118;28;20487;-42
2021/05/08 02:06:52;;;;;;;27.45;19.83;;;;;;;5.54;80.36;101670.13;5052498;28;20137;-42
2021/05/08 02:09:25;;;;;;;31.73;20.27;;;;;;;5.53;80.25;101669.28;5032853;28;20064;-42
2021/05/08 02:11:57;;;;;;;33.67;22.05;;;;;;;5.53;80.31;101665.66;5066650;28;20068;-41
2021/05/08 02:14:24;;;;;;;31.48;20.27;;;;;;;5.52;80.43;101661.22;5049561;28;20124;-41
2021/05/08 02:16:51;;;;;;;35.92;22.77;;;;;;;5.51;80.16;101667.84;5065082;28;20064;-42
2021/05/08 02:19:19;;;;;;;29.05;19.70;;;;;;;5.51;80.34;101665.91;5068952;28;20057;-43
2021/05/08 02:21:46;;;;;;;31.48;21.42;;;;;;;5.51;80.74;101654.00;5070643;28;20053;-42
2021/05/08 02:24:13;;;;;;;34.05;22.70;;;;;;;5.49;80.52;101661.72;5070827;28;20120;-43
2021/05/08 02:26:40;;;;;;;31.42;22.17;;;;;;;5.49;80.62;101658.94;5070984;28;20044;-42
2021/05/08 02:29:10;;;;;;;26.67;18.02;;;;;;;5.47;80.32;101656.41;5056311;28;20049;-42
2021/05/08 02:31:37;;;;;;;27.98;19.42;;;;;;;5.47;80.42;101658.34;5074439;28;20138;-41
2021/05/08 02:34:05;;;;;;;28.85;20.83;;;;;;;5.47;80.43;101653.66;5073781;28;20402;-41
2021/05/08 02:36:32;;;;;;;30.52;20.20;;;;;;;5.46;80.70;101651.97;5074380;28;20060;-43
2021/05/08 02:38:59;;;;;;;31.85;22.23;;;;;;;5.46;80.28;101651.13;5056179;28;20588;-41
2021/05/08 02:41:26;;;;;;;35.05;22.88;;;;;;;5.44;80.28;101651.38;5074114;28;20493;-49
2021/05/08 02:43:53;;;;;;;38.22;24.42;;;;;;;5.44;80.45;101647.75;5057965;28;20254;-41
2021/05/08 02:46:21;;;;;;;33.30;22.98;;;;;;;5.43;80.67;101635.00;5074052;28;20051;-43
2021/05/08 02:48:48;;;;;;;31.08;20.55;;;;;;;5.41;80.63;101639.94;5073482;28;20040;-41
2021/05/08 02:51:15;;;;;;;33.22;23.55;;;;;;;5.41;80.70;101631.63;5074426;28;20140;-42
2021/05/08 02:53:42;;;;;;;32.97;23.30;;;;;;;5.40;80.34;101641.88;5055963;28;20076;-41
2021/05/08 02:56:10;;;;;;;34.03;23.20;;;;;;;5.38;80.51;101635.75;5073988;28;20075;-42
2021/05/08 02:58:41;;;;;;;27.90;19.35;;;;;;;5.36;80.24;101637.09;5073885;28;20060;-42
2021/05/08 03:01:08;;;;;;;35.83;24.45;;;;;;;5.36;80.31;101631.56;5073288;28;20127;-44
2021/05/08 03:03:36;;;;;;;34.47;22.30;;;;;;;5.32;80.57;101627.59;5059941;28;20044;-41
2021/05/08 03:06:04;;;;;;;33.50;21.60;;;;;;;5.30;80.74;101619.53;5074038;28;20048;-41
2021/05/08 03:08:33;;;;;;;31.52;19.63;;;;;;;5.30;80.72;101621.47;5073128;28;20045;-43
2021/05/08 03:11:05;;;;;;;34.05;22.27;;;;;;;5.30;80.60;101621.47;5055993;28;20571;-44
2021/05/08 03:13:34;;;;;;;34.65;22.38;;;;;;;5.30;80.94;101616.75;5073413;28;20060;-44
2021/05/08 03:16:02;;;;;;;35.33;23.90;;;;;;;5.31;80.73;101614.84;5073164;28;20490;-44
2021/05/08 03:18:29;;;;;;;34.88;23.63;;;;;;;5.30;80.82;101618.69;5055195;28;20052;-43
2021/05/08 03:20:58;;;;;;;31.17;21.17;;;;;;;5.29;80.70;101617.00;5073779;28;20040;-41
2021/05/08 03:23:25;;;;;;;32.60;22.13;;;;;;;5.29;80.54;101608.72;5072951;28;20056;-41
2021/05/08 03:25:53;;;;;;;32.58;23.33;;;;;;;5.29;80.53;101611.47;5073540;28;20072;-42
2021/05/08 03:28:20;;;;;;;31.42;21.33;;;;;;;5.31;80.77;101606.53;5055571;28;20049;-41
2021/05/08 03:30:47;;;;;;;32.28;21.27;;;;;;;5.32;80.39;101611.00;5073033;28;20044;-44
2021/05/08 03:33:14;;;;;;;30.00;20.92;;;;;;;5.33;80.80;101609.91;5073354;28;20110;-42
2021/05/08 03:35:41;;;;;;;27.00;18.70;;;;;;;5.36;80.72;101613.03;5055236;28;20139;-43
2021/05/08 03:38:10;;;;;;;29.15;19.40;;;;;;;5.39;80.34;101611.69;5053788;28;20143;-43
2021/05/08 03:40:37;;;;;;;31.85;21.63;;;;;;;5.38;80.32;101608.09;5072976;28;20102;-43
2021/05/08 03:43:03;;;;;;;30.08;20.33;;;;;;;5.38;80.06;101604.47;5072652;28;20203;-42
2021/05/08 03:45:31;;;;;;;32.13;22.38;;;;;;;5.38;80.34;101615.56;5072212;28;20132;-41
2021/05/08 03:48:03;;;;;;;32.40;21.45;;;;;;;5.34;79.98;101606.91;5072576;28;20133;-42
2021/05/08 03:50:30;;;;;;;31.63;20.80;;;;;;;5.35;80.33;101607.72;5071425;28;20044;-46
2021/05/08 03:52:57;;;;;;;32.58;22.55;;;;;;;5.31;80.30;101604.63;5070676;28;20051;-44
2021/05/08 03:55:25;;;;;;;29.75;19.63;;;;;;;5.30;80.25;101605.69;5071125;28;20048;-40
2021/05/08 03:57:52;;;;;;;26.92;18.90;;;;;;;5.29;80.25;101603.19;5051013;28;20060;-42
2021/05/08 04:00:19;;;;;;;32.45;21.80;;;;;;;5.27;80.05;101605.34;5066747;28;20047;-40
2021/05/08 04:02:47;;;;;;;28.48;19.08;;;;;;;5.25;79.94;101600.06;5072976;28;20051;-44
2021/05/08 04:05:14;;;;;;;23.80;16.92;;;;;;;5.24;80.28;101603.06;5071844;28;20098;-43
2021/05/08 04:07:41;;;;;;;31.20;20.27;;;;;;;5.23;79.95;101598.63;5072629;28;20087;-46
2021/05/08 04:10:09;;;;;;;31.65;21.83;;;;;;;5.21;80.37;101604.41;5072508;28;20043;-45
2021/05/08 04:12:37;;;;;;;27.90;17.70;;;;;;;5.17;80.02;101598.53;5071933;28;20497;-43
2021/05/08 04:15:05;;;;;;;33.92;21.55;;;;;;;5.16;80.08;101588.56;5072357;28;20094;-41
2021/05/08 04:17:32;;;;;;;32.60;20.52;;;;;;;5.14;80.09;101581.56;5072496;28;20052;-46
2021/05/08 04:19:59;;;;;;;27.42;18.80;;;;;;;5.10;80.00;101577.63;5071518;28;20039;-46
2021/05/08 04:22:25;;;;;;;26.02;18.08;;;;;;;5.10;80.28;101577.63;5064892;28;20098;-43
2021/05/08 04:24:52;;;;;;;30.45;20.13;;;;;;;5.08;79.96;101577.88;5072208;28;20456;-45
2021/05/08 04:27:19;;;;;;;31.63;21.17;;;;;;;5.06;80.27;101585.56;5070122;28;20087;-45
2021/05/08 04:29:48;;;;;;;29.02;19.65;;;;;;;5.04;80.31;101579.44;5072030;28;20570;-43
2021/05/08 04:32:15;;;;;;;29.33;19.63;;;;;;;5.03;80.36;101585.19;5067747;28;20471;-42
2021/05/08 04:34:42;;;;;;;33.35;23.00;;;;;;;5.04;80.37;101584.13;5070313;28;20068;-42
2021/05/08 04:37:09;;;;;;;32.85;22.35;;;;;;;5.04;80.32;101589.66;5070198;28;20056;-42
2021/05/08 04:39:36;;;;;;;31.80;22.38;;;;;;;5.03;80.59;101577.75;5071744;28;20048;-42
2021/05/08 04:42:03;;;;;;;37.10;24.70;;;;;;;5.04;80.46;101582.19;5071879;28;20469;-42
2021/05/08 04:44:30;;;;;;;29.83;21.42;;;;;;;5.04;80.55;101575.81;5053993;28;20044;-43
2021/05/08 04:46:58;;;;;;;33.13;22.95;;;;;;;5.04;80.61;101573.91;5071161;28;20044;-44
2021/05/08 04:49:25;;;;;;;27.10;19.83;;;;;;;5.05;80.34;101578.34;5071500;28;20052;-43
2021/05/08 04:51:55;;;;;;;30.65;20.17;;;;;;;5.07;80.53;101587.25;5071630;28;20489;-43
2021/05/08 04:54:23;;;;;;;30.95;21.55;;;;;;;5.08;80.26;101583.41;5071278;28;20052;-43
2021/05/08 04:56:51;;;;;;;36.67;22.70;;;;;;;5.12;80.36;101581.81;5071190;28;20558;-44
2021/05/08 04:59:17;;;;;;;32.67;22.27;;;;;;;5.12;80.25;101581.81;5071612;28;20436;-43
2021/05/08 05:01:44;;;;;;;27.92;19.50;;;;;;;5.14;80.45;101582.41;5070884;28;20048;-44
2021/05/08 05:04:12;;;;;;;32.38;21.63;;;;;;;5.16;80.40;101585.78;5071408;28;20044;-44
2021/05/08 05:06:39;;;;;;;28.77;20.60;;;;;;;5.18;80.23;101578.09;5071435;28;20485;-45
2021/05/08 05:09:06;;;;;;;30.65;21.13;;;;;;;5.22;80.19;101583.94;5070959;28;20044;-45
2021/05/08 05:11:33;;;;;;;28.98;20.35;;;;;;;5.25;80.46;101577.06;5071465;28;20040;-44
2021/05/08 05:14:00;;;;;;;26.38;18.80;;;;;;;5.30;80.25;101575.25;5071310;28;20044;-43
2021/05/08 05:16:27;;;;;;;26.70;18.77;;;;;;;5.34;80.05;101570.06;5070618;28;20044;-42
2021/05/08 05:18:54;;;;;;;23.05;17.13;;;;;;;5.44;79.79;101567.50;5071549;28;20048;-45
2021/05/08 05:21:22;;;;;;;29.10;20.13;;;;;;;5.52;79.94;101569.88;5070716;28;20101;-45
2021/05/08 05:23:49;;;;;;;30.52;20.98;;;;;;;5.59;79.74;101572.50;5069734;28;20517;-43
2021/05/08 05:26:16;;;;;;;27.90;19.88;;;;;;;5.66;79.42;101564.84;5071221;28;20081;-44
2021/05/08 05:28:43;;;;;;;27.75;19.38;;;;;;;5.73;79.26;101568.31;5070159;28;20476;-43
2021/05/08 05:31:09;;;;;;;29.92;20.65;;;;;;;5.82;79.31;101567.63;5071032;28;20086;-42
2021/05/08 05:33:36;;;;;;;30.00;21.05;;;;;;;5.92;78.92;101566.19;5071052;28;20051;-42
2021/05/08 05:36:04;;;;;;;28.95;19.98;;;;;;;6.03;78.67;101570.78;5070747;28;20580;-42
2021/05/08 05:38:33;;;;;;;29.20;21.25;;;;;;;6.07;78.87;101561.72;5070328;28;20048;-43
2021/05/08 05:41:00;;;;;;;28.60;20.02;;;;;;;6.17;78.58;101555.53;5071039;28;20563;-42
2021/05/08 05:43:27;;;;;;;25.65;18.02;;;;;;;6.26;78.57;101556.75;5070288;28;20041;-41
2021/05/08 05:45:54;;;;;;;28.77;21.13;;;;;;;6.34;78.35;101548.03;5071058;28;20044;-41
2021/05/08 05:48:21;;;;;;;27.73;20.45;;;;;;;6.43;78.34;101545.63;5070771;28;20087;-41
2021/05/08 05:50:48;;;;;;;27.85;20.17;;;;;;;6.52;78.03;101547.72;5070618;28;20324;-43
2021/05/08 05:53:15;;;;;;;25.17;18.48;;;;;;;6.62;77.75;101544.25;5069776;28;20048;-43
2021/05/08 05:55:43;;;;;;;27.33;19.20;;;;;;;6.72;77.21;101546.34;5067849;28;20106;-43
2021/05/08 05:58:10;;;;;;;24.77;18.52;;;;;;;6.82;77.15;101535.38;5069501;28;20044;-44
2021/05/08 06:00:37;;;;;;;23.70;17.33;;;;;;;6.90;76.32;101537.69;5059994;28;20044;-44
2021/05/08 06:03:05;;;;;;;22.98;17.83;;;;;;;6.96;76.31;101535.84;5069311;28;20037;-43
2021/05/08 06:05:31;;;;;;;19.95;15.00;;;;;;;7.05;76.52;101532.31;5072816;28;20405;-43
2021/05/08 06:07:58;;;;;;;20.88;14.88;;;;;;;7.16;76.40;101538.84;5075418;28;20055;-44
2021/05/08 06:10:25;;;;;;;23.98;15.25;;;;;;;7.23;75.85;101534.75;5075371;28;20044;-43
2021/05/08 06:12:53;;;;;;;20.20;14.02;;;;;;;7.28;75.48;101536.75;5075024;28;20055;-43
2021/05/08 06:15:20;;;;;;;16.88;13.45;;;;;;;7.29;75.56;101526.50;5075361;28;20460;-42
2021/05/08 06:17:48;;;;;;;18.98;14.25;;;;;;;7.35;75.33;101519.91;5075244;28;20114;-42
2021/05/08 06:20:15;;;;;;;17.65;13.57;;;;;;;7.40;75.30;101517.16;5075489;28;20040;-42
2021/05/08 06:22:43;;;;;;;18.30;12.65;;;;;;;7.46;74.75;101518.91;5075735;28;20051;-44
2021/05/08 06:25:11;;;;;;;17.08;13.18;;;;;;;7.51;74.51;101514.25;5074185;28;20448;-41
2021/05/08 06:27:40;;;;;;;17.52;12.57;;;;;;;7.57;74.62;101504.88;5075117;28;20503;-42
2021/05/08 06:30:09;;;;;;;17.45;12.27;;;;;;;7.64;74.00;101501.00;5074986;28;20087;-42
2021/05/08 06:32:36;;;;;;;16.40;12.07;;;;;;;7.64;73.36;101498.22;5075080;28;20123;-44
2021/05/08 06:35:03;;;;;;;15.32;11.73;;;;;;;7.67;73.24;101501.31;5074992;28;20089;-45
2021/05/08 06:37:30;;;;;;;15.27;11.77;;;;;;;7.74;73.17;101496.41;5075206;28;20486;-41
2021/05/08 06:39:58;;;;;;;14.55;10.85;;;;;;;7.81;73.17;101491.44;5074690;28;20072;-42
2021/05/08 06:42:25;;;;;;;14.15;11.38;;;;;;;7.85;72.49;101495.38;5066322;28;20131;-47
2021/05/08 06:44:52;;;;;;;14.00;10.20;;;;;;;7.87;72.29;101495.09;5075210;28;20055;-42
2021/05/08 06:47:21;;;;;;;15.55;10.82;;;;;;;7.88;71.87;101480.09;5074880;28;20105;-44
2021/05/08 06:49:49;;;;;;;12.98;10.43;;;;;;;7.90;71.54;101477.91;5074746;28;20043;-43
2021/05/08 06:52:16;;;;;;;16.42;10.20;;;;;;;7.95;70.90;101476.00;5069829;28;20044;-44
2021/05/08 06:54:43;;;;;;;14.50;10.55;;;;;;;8.00;70.72;101471.56;5074389;28;20045;-46
2021/05/08 06:57:10;;;;;;;13.35;10.07;;;;;;;8.05;70.35;101471.59;5074646;28;20045;-42
2021/05/08 06:59:37;;;;;;;12.77;9.77;;;;;;;8.12;70.04;101475.00;5075275;28;20059;-45
2021/05/08 07:02:04;;;;;;;14.32;9.80;;;;;;;8.15;69.62;101466.97;5074416;28;20049;-45
2021/05/08 07:04:33;;;;;;;12.90;9.10;;;;;;;8.24;69.73;101472.84;5071396;28;20448;-45
2021/05/08 07:07:00;;;;;;;13.77;9.80;;;;;;;8.28;69.22;101465.66;5074211;28;20828;-41
2021/05/08 07:09:27;;;;;;;11.77;8.52;;;;;;;8.36;69.02;101451.28;5074976;28;20047;-46
2021/05/08 07:11:54;;;;;;;12.40;9.05;;;;;;;8.45;68.73;101455.19;5074672;28;20055;-42
2021/05/08 07:14:21;;;;;;;11.98;8.88;;;;;;;8.48;68.33;101451.88;5071667;28;20048;-43
2021/05/08 07:16:53;;;;;;;12.02;8.57;;;;;;;8.54;68.10;101450.81;5069109;28;20070;-43
2021/05/08 07:19:20;;;;;;;12.43;9.13;;;;;;;8.61;67.98;101445.81;5071562;28;20047;-43
2021/05/08 07:21:48;;;;;;;12.10;8.35;;;;;;;8.69;67.36;101447.25;5071301;28;20052;-44
2021/05/08 07:24:19;;;;;;;10.60;7.60;;;;;;;8.77;66.64;101443.09;5071840;28;20215;-42
2021/05/08 07:26:46;;;;;;;11.05;7.72;;;;;;;8.84;66.19;101443.66;5071750;28;20044;-42
2021/05/08 07:29:14;;;;;;;12.45;7.50;;;;;;;8.93;65.54;101431.75;5070792;28;20044;-44
2021/05/08 07:31:41;;;;;;;11.63;7.80;;;;;;;9.06;65.24;101423.97;5071097;28;20090;-46
2021/05/08 07:34:09;;;;;;;11.43;7.75;;;;;;;9.19;65.12;101413.13;5071258;28;21042;-45
2021/05/08 07:36:39;;;;;;;11.13;8.00;;;;;;;9.30;64.63;101413.97;5071101;28;20071;-43
2021/05/08 07:39:18;;;;;;;10.15;7.60;;;;;;;9.40;64.59;101413.13;5071171;28;20087;-45
2021/05/08 07:41:49;;;;;;;14.98;9.25;;;;;;;9.41;63.96;101409.25;5070753;28;20043;-46
2021/05/08 07:44:17;;;;;;;13.82;9.32;;;;;;;9.44;63.57;101406.75;5070985;28;20044;-46
2021/05/08 07:46:46;;;;;;;13.55;9.80;;;;;;;9.45;63.66;101402.00;5071072;28;20041;-43
2021/05/08 07:49:14;;;;;;;13.45;9.63;;;;;;;9.45;64.03;101402.00;5070597;28;20041;-44
2021/05/08 07:51:41;;;;;;;12.32;10.00;;;;;;;9.50;64.06;101391.72;5071181;28;20054;-44
2021/05/08 07:54:08;;;;;;;14.57;9.45;;;;;;;9.56;63.49;101389.75;5070845;28;20148;-42
2021/05/08 07:56:37;;;;;;;14.93;9.15;;;;;;;9.63;63.47;101385.56;5057510;28;20074;-46
2021/05/08 07:59:05;;;;;;;13.48;9.60;;;;;;;9.64;63.08;101375.25;5070588;28;20055;-45
2021/05/08 08:01:32;;;;;;;13.70;9.60;;;;;;;9.70;63.22;101382.50;5066828;28;20077;-42
2021/05/08 08:03:59;;;;;;;14.20;10.25;;;;;;;9.61;62.13;101375.81;5069685;28;20055;-41
2021/05/08 08:06:27;;;;;;;15.07;10.23;;;;;;;9.63;62.09;101381.94;5070564;28;20123;-42
2021/05/08 08:08:54;;;;;;;13.38;9.50;;;;;;;9.67;62.42;101374.69;5068953;28;20157;-42
2021/05/08 08:11:21;;;;;;;12.85;9.27;;;;;;;9.75;62.73;101368.56;5070231;28;20048;-44
2021/05/08 08:13:49;;;;;;;12.13;8.93;;;;;;;9.80;62.82;101359.34;5070404;28;20044;-41
2021/05/08 08:16:16;;;;;;;12.35;9.45;;;;;;;9.82;62.94;101366.31;5070718;28;20055;-43
2021/05/08 08:18:43;;;;;;;10.82;8.45;;;;;;;9.92;63.40;101360.72;5069928;28;20114;-44
2021/05/08 08:21:10;;;;;;;12.25;9.32;;;;;;;9.99;63.36;101355.66;5070236;28;20185;-43
2021/05/08 08:23:38;;;;;;;13.07;8.60;;;;;;;10.01;63.85;101353.44;5070063;28;20059;-43
2021/05/08 08:26:04;;;;;;;11.93;9.18;;;;;;;10.02;63.81;101352.31;5069272;28;20044;-43
2021/05/08 08:28:31;;;;;;;11.13;9.00;;;;;;;10.03;63.75;101347.56;5066187;28;20142;-43
2021/05/08 08:30:59;;;;;;;11.48;9.18;;;;;;;10.06;63.74;101343.38;5069820;28;20053;-47
2021/05/08 08:33:26;;;;;;;11.90;9.02;;;;;;;10.08;63.24;101335.56;5069878;28;20056;-44
2021/05/08 08:35:54;;;;;;;12.02;9.32;;;;;;;10.07;62.88;101337.53;5069995;28;20048;-44
2021/05/08 08:38:21;;;;;;;13.18;9.65;;;;;;;10.07;62.86;101340.31;5069587;28;20053;-45
2021/05/08 08:40:49;;;;;;;12.35;8.70;;;;;;;10.08;63.10;101343.94;5070076;28;20154;-45
2021/05/08 08:43:16;;;;;;;13.95;9.38;;;;;;;10.12;62.87;101350.63;5070221;28;20135;-46
2021/05/08 08:45:44;;;;;;;12.68;9.00;;;;;;;10.15;62.88;101350.91;5069190;28;20592;-45
2021/05/08 08:48:12;;;;;;;14.30;9.05;;;;;;;10.19;62.78;101348.41;5069680;28;20071;-43
2021/05/08 08:50:40;;;;;;;12.15;9.07;;;;;;;10.24;63.04;101351.16;5070005;28;20036;-42
2021/05/08 08:53:09;;;;;;;10.30;7.72;;;;;;;10.30;62.46;101352.81;5069182;28;20074;-43
2021/05/08 08:55:41;;;;;;;10.10;7.93;;;;;;;10.36;61.66;101343.31;5060881;28;20509;-45
2021/05/08 08:58:09;;;;;;;13.05;8.25;;;;;;;10.38;60.63;101341.06;5069762;28;20067;-46
2021/05/08 09:00:37;;;;;;;9.13;7.03;;;;;;;10.44;60.50;101342.69;5069055;28;20404;-43
2021/05/08 09:03:04;;;;;;;9.68;6.90;;;;;;;10.53;60.65;101343.78;5069699;28;20050;-43
2021/05/08 09:05:32;;;;;;;9.48;7.00;;;;;;;10.61;60.03;101336.75;5065444;28;20519;-44
2021/05/08 09:08:01;;;;;;;10.77;7.78;;;;;;;10.65;59.50;101338.66;5068957;28;20048;-46
2021/05/08 09:10:30;;;;;;;11.60;8.30;;;;;;;10.63;59.16;101332.53;5059038;28;20040;-43
2021/05/08 09:12:59;;;;;;;13.68;7.95;;;;;;;10.62;59.22;101330.88;5069379;28;20483;-46
2021/05/08 09:15:31;;;;;;;10.57;7.75;;;;;;;10.66;59.28;101331.97;5068888;28;20063;-44
2021/05/08 09:17:59;;;;;;;10.63;7.30;;;;;;;10.68;59.33;101326.94;5069338;28;20045;-49
2021/05/08 09:20:42;;;;;;;12.05;7.47;;;;;;;10.72;58.41;101324.41;5068890;28;20045;-40
2021/05/08 09:23:24;;;;;;;10.43;6.82;;;;;;;10.77;58.60;101316.00;5066478;28;20040;-41
2021/05/08 09:25:59;;;;;;;10.85;7.00;;;;;;;10.83;58.59;101317.63;5068989;28;20036;-44
2021/05/08 09:28:28;;;;;;;13.05;7.30;;;;;;;10.88;58.67;101311.19;5069060;28;20146;-44
2021/05/08 09:30:56;;;;;;;13.38;8.13;;;;;;;10.92;58.57;101315.06;5069228;28;20162;-41
2021/05/08 09:33:26;;;;;;;11.88;7.45;;;;;;;10.98;58.49;101319.50;5069573;28;20044;-41
2021/05/08 09:36:01;;;;;;;12.20;7.80;;;;;;;10.99;58.41;101318.38;5067651;28;20055;-42
2021/05/08 09:38:36;;;;;;;10.75;7.30;;;;;;;11.03;58.79;101317.47;5069169;28;20048;-43
2021/05/08 09:41:05;;;;;;;9.82;6.32;;;;;;;11.11;59.60;101310.44;5065126;28;20040;-44
2021/05/08 09:43:32;;;;;;;12.48;7.80;;;;;;;11.11;59.50;101310.44;5055214;28;20056;-41
2021/05/08 09:45:59;;;;;;;9.65;7.13;;;;;;;11.13;60.24;101294.22;5068822;28;20388;-42
2021/05/08 09:48:30;;;;;;;10.98;7.00;;;;;;;11.20;60.79;101297.50;5069272;28;20044;-42
2021/05/08 09:51:22;;;;;;;10.27;6.88;;;;;;;11.23;60.13;101291.31;5068667;28;20135;-42
2021/05/08 09:53:51;;;;;;;10.45;6.65;;;;;;;11.25;60.42;101283.50;5067524;28;20060;-42
2021/05/08 09:56:35;;;;;;;11.02;6.75;;;;;;;11.27;60.74;101275.66;5059124;28;20135;-44
2021/05/08 09:59:20;;;;;;;9.65;6.05;;;;;;;11.29;60.22;101264.19;5064846;28;20048;-44
2021/05/08 10:01:47;;;;;;;7.03;4.97;;;;;;;11.28;60.02;101265.31;5039909;28;20059;-43
2021/05/08 10:04:26;;;;;;;9.30;5.90;;;;;;;11.32;59.52;101271.97;5068838;28;20047;-42
2021/05/08 10:07:16;;;;;;;9.98;5.47;;;;;;;11.35;60.00;101271.41;5069017;28;20047;-43
2021/05/08 10:09:44;;;;;;;9.05;5.85;;;;;;;11.26;60.43;101267.56;5061950;28;20061;-42
2021/05/08 10:12:14;;;;;;;9.18;5.15;;;;;;;11.20;61.08;101268.72;5068476;28;20485;-42
2021/05/08 10:14:43;;;;;;;8.48;5.25;;;;;;;11.14;61.62;101265.16;5069110;28;20045;-44
2021/05/08 10:17:18;;;;;;;8.90;5.35;;;;;;;11.15;62.65;101260.41;5068646;28;20094;-43
2021/05/08 10:19:47;;;;;;;7.55;5.25;;;;;;;11.14;63.90;101256.78;5069554;28;20056;-44
2021/05/08 10:22:16;;;;;;;7.47;5.07;;;;;;;11.14;63.99;101245.63;5068745;28;20044;-43
2021/05/08 10:24:45;;;;;;;8.15;5.70;;;;;;;11.15;64.24;101243.66;5068128;28;20048;-45
2021/05/08 10:27:12;;;;;;;7.45;5.10;;;;;;;11.13;64.69;101229.97;5068484;28;20050;-47
2021/05/08 10:29:42;;;;;;;9.05;5.43;;;;;;;11.08;64.88;101231.97;5068948;28;20040;-47
2021/05/08 10:32:11;;;;;;;8.40;5.07;;;;;;;11.04;65.30;101232.56;5068081;28;20478;-44
2021/05/08 10:34:51;;;;;;;6.80;4.78;;;;;;;11.01;64.91;101221.16;5068943;28;20048;-45
2021/05/08 10:37:19;;;;;;;9.25;5.45;;;;;;;10.99;65.38;101226.22;5068402;28;20052;-46
2021/05/08 10:39:52;;;;;;;9.32;5.53;;;;;;;10.98;65.69;101213.38;5062793;28;20158;-45
2021/05/08 10:42:34;;;;;;;8.20;5.10;;;;;;;10.93;65.73;101210.63;5068811;28;20048;-47
2021/05/08 10:45:01;;;;;;;8.60;4.85;;;;;;;10.87;66.41;101209.00;5067856;28;20417;-47
2021/05/08 10:48:06;;;;;;;7.90;5.05;;;;;;;10.87;66.25;101206.19;5069328;28;20083;-48
2021/05/08 10:50:42;;;;;;;8.05;5.05;;;;;;;10.80;66.86;101200.13;5000403;28;20043;-47
2021/05/08 10:53:11;;;;;;;7.18;4.20;;;;;;;10.79;67.02;101195.69;5071644;28;20223;-48
2021/05/08 10:55:50;;;;;;;9.35;5.70;;;;;;;10.78;67.55;101196.81;5072932;28;20051;-48
2021/05/08 10:58:37;;;;;;;7.38;5.65;;;;;;;10.79;68.49;101185.31;5072252;28;20126;-46
2021/05/08 11:01:09;;;;;;;7.88;5.63;;;;;;;10.71;68.92;101180.38;5068252;28;20036;-48
2021/05/08 11:04:01;;;;;;;9.70;5.95;;;;;;;10.62;69.17;101166.22;5068923;28;20047;-49
2021/05/08 11:06:28;;;;;;;9.65;5.53;;;;;;;10.60;69.83;101171.25;5071844;28;20076;-48
2021/05/08 11:08:56;;;;;;;9.60;5.65;;;;;;;10.58;70.16;101161.53;5072011;28;20063;-46
2021/05/08 11:11:44;;;;;;;7.38;4.85;;;;;;;10.54;70.59;101172.44;5072073;28;20052;-48
2021/05/08 11:14:12;;;;;;;8.15;5.82;;;;;;;10.45;71.31;101163.00;5068445;28;20048;-46
2021/05/08 11:16:54;;;;;;;10.00;5.95;;;;;;;10.38;71.79;101156.94;5071907;28;20516;-49
2021/05/08 11:19:23;;;;;;;9.63;6.25;;;;;;;10.26;72.24;101150.88;5071984;28;20055;-48
2021/05/08 11:22:05;;;;;;;9.02;5.78;;;;;;;10.25;73.04;101135.28;5071400;28;20056;-46
2021/05/08 11:24:41;;;;;;;9.17;6.27;;;;;;;10.21;74.01;101139.75;5064915;28;20504;-43
2021/05/08 11:27:24;;;;;;;10.00;6.55;;;;;;;10.19;74.01;101134.47;5067854;28;20295;-47